logo tempoitalia

Diretta Meteo Bologna-Borgo Panigale, Italiasabato 31 luglio ore 20:50

Mappa
Sereno 30 °C Sereno 24 Ore: T.min 22 T.max 35
Ponente Est/Nord-Est Km/h 11.1 Punto di rugiada: 18 °C Umidità: 48% Visibilità: 10 Km
Il sole sorge alle: 05:59 Il sole tramonta alle: 20:43
31 Luglio 2021 20:50 tempo osservato: Sereno Sereno 30 48 1005 vento: Nord E/NE 11.1
31 Luglio 2021 20:20 tempo osservato: Sereno Sereno 32 43 1005 vento: Nord N/NE 11.1
31 Luglio 2021 19:50 tempo osservato: Sereno Sereno 33 38 1005 vento: Nord N 5.5
31 Luglio 2021 19:20 tempo osservato: Sereno Sereno 34 36 1005 vento: Nord N/NE 13
31 Luglio 2021 18:50 tempo osservato: Sereno Sereno 34 38 1005 vento: Nord E/NE 20.3
31 Luglio 2021 17:50 tempo osservato: Sereno Sereno 34 43 1005 vento: Nord NE 18.5
31 Luglio 2021 17:20 tempo osservato: Sereno Sereno 35 34 1006 vento: Nord N 14.8
31 Luglio 2021 16:50 tempo osservato: Sereno Sereno 35 34 1006 vento: Nord N 13
31 Luglio 2021 16:20 tempo osservato: Sereno Sereno 35 34 1006 vento: Nord N/NO 13
31 Luglio 2021 15:50 tempo osservato: Sereno Sereno 35 32 1006 vento: Nord N 14.8
31 Luglio 2021 15:20 tempo osservato: Sereno Sereno 35 32 1006 vento: Nord N 14.8
31 Luglio 2021 14:50 tempo osservato: Sereno Sereno 34 36 1006 vento: Nord N 14.8
31 Luglio 2021 14:20 tempo osservato: Sereno Sereno 34 34 1007 vento: Nord N 14.8
31 Luglio 2021 13:50 tempo osservato: Sereno Sereno 34 34 1007 vento: Nord N 14.8
31 Luglio 2021 13:20 tempo osservato: Sereno Sereno 34 34 1007 vento: Nord N/NE 9.3
31 Luglio 2021 12:20 tempo osservato: Sereno Sereno 33 36 1008 vento: Nord N 7.4
31 Luglio 2021 11:50 tempo osservato: Sereno Sereno 32 40 1008 vento: Nord N 5.5
31 Luglio 2021 11:20 tempo osservato: Sereno Sereno 32 40 1008 vento: Nord N 9.3
31 Luglio 2021 10:50 tempo osservato: Sereno Sereno 30 45 1009 vento: Nord N/NE 7.4
31 Luglio 2021 10:20 tempo osservato: Sereno Sereno 30 45 1009 vento: Nord N 7.4
31 Luglio 2021 09:50 tempo osservato: Sereno Sereno 29 51 1009 vento: Nord N 3.7
31 Luglio 2021 09:20 tempo osservato: Sereno Sereno 29 51 1009 vento: Nord N 1.8
31 Luglio 2021 08:50 tempo osservato: Sereno Sereno 27 54 1009 vento: Nord N 3.7
31 Luglio 2021 08:20 tempo osservato: Sereno Sereno 26 50 1009 vento: Nord S/SO 7.4
31 Luglio 2021 07:50 tempo osservato: Sereno Sereno 24 57 1009 vento: Nord SO 7.4
31 Luglio 2021 07:20 tempo osservato: Sereno Sereno 24 57 1009 vento: Nord N 5.5
31 Luglio 2021 06:50 tempo osservato: Sereno Sereno 23 60 1009 vento: Nord N 3.7
31 Luglio 2021 05:50 tempo osservato: Sereno Sereno 22 73 1009 vento: Nord N 5.5
31 Luglio 2021 05:20 tempo osservato: Sereno Sereno 22 78 1009 vento: Nord N 5.5
31 Luglio 2021 04:50 tempo osservato: Sereno Sereno 23 73 1009 vento: Nord N 3.7
31 Luglio 2021 04:20 tempo osservato: Sereno Sereno 23 73 1009 vento: Nord SO 7.4
31 Luglio 2021 03:50 tempo osservato: Sereno Sereno 23 73 1009 vento: Nord O/SO 7.4
31 Luglio 2021 03:20 tempo osservato: Sereno Sereno 24 69 1009 vento: Nord O/SO 7.4
31 Luglio 2021 02:50 tempo osservato: Sereno Sereno 24 64 1009 vento: Nord N 5.5
31 Luglio 2021 02:20 tempo osservato: Sereno Sereno 25 61 1009 vento: Nord S 11.1
31 Luglio 2021 01:50 tempo osservato: Sereno Sereno 25 65 1009 vento: Nord S/SO 7.4
31 Luglio 2021 01:20 tempo osservato: Sereno Sereno 25 69 1009 vento: Nord SO 7.4
31 Luglio 2021 00:50 tempo osservato: Sereno Sereno 25 69 1009 vento: Nord N 5.5
31 Luglio 2021 00:20 tempo osservato: Sereno Sereno 26 65 1009 vento: Nord N 5.5
30 Luglio 2021 23:50 tempo osservato: Sereno Sereno 26 65 1009 vento: Nord N 5.5
30 Luglio 2021 23:20 tempo osservato: Sereno Sereno 27 61 1009 vento: Nord N 1.8
30 Luglio 2021 22:50 tempo osservato: Sereno Sereno 28 58 1009 vento: Nord N 7.4
30 Luglio 2021 22:20 tempo osservato: Sereno Sereno 28 58 1009 vento: Nord N 7.4
30 Luglio 2021 21:50 tempo osservato: Sereno Sereno 28 58 1009 vento: Nord N 3.7